createdAt,value
2023-03-17T00:00:40.981Z,101427.69
2023-03-17T00:04:55.031Z,101439.75
2023-03-17T00:08:57.687Z,101425.06
2023-03-17T00:12:59.907Z,101443.09
2023-03-17T00:17:02.037Z,101440.69
2023-03-17T00:21:04.625Z,101453.31
2023-03-17T00:25:28.991Z,101437.75
2023-03-17T00:29:31.464Z,101435.19
2023-03-17T00:33:37.152Z,101421.53
2023-03-17T00:37:39.570Z,101419.63
2023-03-17T00:41:43.764Z,101425.59
2023-03-17T00:45:46.889Z,101416.19
2023-03-17T00:49:48.927Z,101410.19
2023-03-17T00:53:51.011Z,101416.34
2023-03-17T00:57:52.777Z,101411.75
2023-03-17T01:01:55.318Z,101413.44
2023-03-17T01:05:57.895Z,101403.13
2023-03-17T01:10:00.999Z,101405.72
2023-03-17T01:14:03.511Z,101405.72
2023-03-17T01:18:05.669Z,101393.91
2023-03-17T01:22:08.992Z,101407.53
2023-03-17T01:26:11.724Z,101396.31
2023-03-17T01:30:19.582Z,101389.47
2023-03-17T01:34:22.402Z,101380.88
2023-03-17T01:38:24.729Z,101387.69
2023-03-17T01:42:27.062Z,101387.63
2023-03-17T01:46:31.950Z,101390.31
2023-03-17T01:50:33.992Z,101385.94
2023-03-17T01:54:56.249Z,101391.94
2023-03-17T01:59:02.722Z,101397.06
2023-03-17T02:03:06.064Z,101394.53
2023-03-17T02:07:10.142Z,101393.63
2023-03-17T02:11:17.040Z,101395.41
2023-03-17T02:15:19.334Z,101403.84
2023-03-17T02:19:21.606Z,101402.41
2023-03-17T02:23:24.777Z,101400.31
2023-03-17T02:27:38.569Z,101419.25
2023-03-17T02:31:41.009Z,101411.53
2023-03-17T02:35:43.108Z,101412.44
2023-03-17T02:39:45.803Z,101423.59
2023-03-17T02:43:48.188Z,101420.59
2023-03-17T02:47:51.562Z,101421.63
2023-03-17T02:51:53.986Z,101416.53
2023-03-17T02:55:56.713Z,101420.84
2023-03-17T02:59:58.814Z,101439.00
2023-03-17T03:04:01.269Z,101451.63
2023-03-17T03:08:03.606Z,101449.22
2023-03-17T03:12:06.458Z,101451.31
2023-03-17T03:16:09.252Z,101437.84
2023-03-17T03:20:12.960Z,101438.50
2023-03-17T03:24:15.133Z,101452.56
2023-03-17T03:28:16.826Z,101463.72
2023-03-17T03:32:18.993Z,101480.81
2023-03-17T03:36:21.743Z,101474.81
2023-03-17T03:40:24.935Z,101475.72
2023-03-17T03:44:27.127Z,101474.84
2023-03-17T03:48:29.185Z,101485.09
2023-03-17T03:52:31.182Z,101477.72
2023-03-17T03:56:33.210Z,101459.09
2023-03-17T04:00:35.389Z,101466.56
2023-03-17T04:04:37.393Z,101440.22
2023-03-17T04:08:39.441Z,101453.28
2023-03-17T04:12:42.137Z,101455.88
2023-03-17T04:16:44.787Z,101456.72
2023-03-17T04:20:47.624Z,101454.88
2023-03-17T04:24:49.887Z,101456.56
2023-03-17T04:28:52.473Z,101453.19
2023-03-17T04:32:54.702Z,101466.94
2023-03-17T04:36:56.940Z,101464.31
2023-03-17T04:40:59.245Z,101467.78
2023-03-17T04:45:01.240Z,101463.47
2023-03-17T04:49:03.252Z,101473.78
2023-03-17T04:53:05.406Z,101470.34
2023-03-17T04:57:07.383Z,101471.75
2023-03-17T05:01:09.915Z,101465.88
2023-03-17T05:05:12.880Z,101460.13
2023-03-17T05:09:14.924Z,101462.59
2023-03-17T05:13:17.176Z,101453.25
2023-03-17T05:17:19.281Z,101468.78
2023-03-17T05:21:21.230Z,101472.28
2023-03-17T05:25:23.289Z,101473.16
2023-03-17T05:29:25.387Z,101479.25
2023-03-17T05:33:27.741Z,101495.72
2023-03-17T05:37:29.818Z,101492.31
2023-03-17T05:41:32.054Z,101489.13
2023-03-17T05:45:34.094Z,101490.81
2023-03-17T05:49:36.228Z,101515.09
2023-03-17T05:53:38.310Z,101508.22
2023-03-17T05:57:40.977Z,101512.66
2023-03-17T06:01:42.963Z,101519.81
2023-03-17T06:05:45.897Z,101541.28
2023-03-17T06:09:48.034Z,101537.16
2023-03-17T06:13:50.143Z,101552.75
2023-03-17T06:17:52.227Z,101551.94
2023-03-17T06:21:54.468Z,101565.03
2023-03-17T06:25:56.863Z,101559.84
2023-03-17T06:30:00.336Z,101559.00
2023-03-17T06:34:03.241Z,101555.59
2023-03-17T06:38:05.353Z,101567.66
2023-03-17T06:42:08.110Z,101578.00
2023-03-17T06:46:10.560Z,101586.63
2023-03-17T06:50:12.776Z,101596.94
2023-03-17T06:54:14.950Z,101608.09
2023-03-17T06:58:17.026Z,101617.56
2023-03-17T07:02:19.787Z,101623.59
2023-03-17T07:06:23.315Z,101631.34
2023-03-17T07:10:25.540Z,101633.06
2023-03-17T07:14:27.515Z,101616.75
2023-03-17T07:18:33.908Z,101620.09
2023-03-17T07:22:36.073Z,101608.97
2023-03-17T07:26:38.147Z,101603.72
2023-03-17T07:30:43.755Z,101601.84
2023-03-17T07:34:45.934Z,101618.25
2023-03-17T07:38:48.599Z,101620.66
2023-03-17T07:42:50.800Z,101615.81
2023-03-17T07:46:53.251Z,101618.94
2023-03-17T07:50:55.949Z,101618.72
2023-03-17T07:54:59.052Z,101604.53
2023-03-17T07:59:01.689Z,101623.41
2023-03-17T08:03:10.269Z,101622.22
2023-03-17T08:07:13.375Z,101621.66
2023-03-17T08:11:15.709Z,101608.72
2023-03-17T08:15:18.859Z,101603.72
2023-03-17T08:19:22.045Z,101609.66
2023-03-17T08:23:25.455Z,101604.84
2023-03-17T08:27:27.447Z,101597.19
2023-03-17T08:31:29.581Z,101606.53
2023-03-17T08:35:32.014Z,101613.94
2023-03-17T08:39:34.267Z,101609.81
2023-03-17T08:43:37.405Z,101614.84
2023-03-17T08:47:40.296Z,101622.16
2023-03-17T08:51:42.882Z,101632.88
2023-03-17T08:55:45.006Z,101629.09
2023-03-17T08:59:47.421Z,101641.50
2023-03-17T09:03:50.712Z,101629.53
2023-03-17T09:07:53.499Z,101640.78
2023-03-17T09:11:55.740Z,101635.56
2023-03-17T09:15:57.816Z,101635.38
2023-03-17T09:19:59.897Z,101637.03
2023-03-17T09:24:02.756Z,101631.78
2023-03-17T09:28:07.229Z,101639.16
2023-03-17T09:32:09.307Z,101631.13
2023-03-17T09:36:12.090Z,101629.06
2023-03-17T09:40:18.394Z,101629.81
2023-03-17T09:44:32.630Z,101629.44
2023-03-17T09:48:38.924Z,101622.91
2023-03-17T09:52:41.481Z,101614.84
2023-03-17T09:56:48.362Z,101610.84
2023-03-17T10:00:51.493Z,101598.56
2023-03-17T10:04:53.969Z,101595.13
2023-03-17T10:09:40.203Z,101572.97
2023-03-17T10:13:51.740Z,101562.38
2023-03-17T10:17:54.770Z,101564.50
2023-03-17T10:22:05.129Z,101558.00
2023-03-17T10:26:40.544Z,101568.81
2023-03-17T10:30:43.939Z,101563.38
2023-03-17T10:34:47.164Z,101555.06
2023-03-17T10:38:54.411Z,101553.28
2023-03-17T10:43:10.349Z,101540.56
2023-03-17T10:47:25.864Z,101539.88
2023-03-17T10:51:36.990Z,101538.00
2023-03-17T10:55:38.977Z,101531.22
2023-03-17T10:59:59.965Z,101527.09
2023-03-17T11:04:06.216Z,101524.03
2023-03-17T11:08:18.600Z,101526.16
2023-03-17T11:12:40.929Z,101528.25
2023-03-17T11:16:56.824Z,101511.06
2023-03-17T11:21:04.714Z,101518.56
2023-03-17T11:25:15.496Z,101514.13
2023-03-17T11:29:42.532Z,101519.50
2023-03-17T11:33:58.086Z,101512.81
2023-03-17T11:38:18.080Z,101506.28
2023-03-17T11:42:48.831Z,101504.22
2023-03-17T11:47:15.014Z,101501.66
2023-03-17T11:51:30.521Z,101484.38
2023-03-17T11:55:38.800Z,101472.34
2023-03-17T11:59:54.497Z,101467.25
2023-03-17T12:04:11.223Z,101456.47
2023-03-17T12:08:35.411Z,101453.59
2023-03-17T12:12:44.373Z,101437.19
2023-03-17T12:17:10.618Z,101438.00
2023-03-17T12:21:23.480Z,101427.34
2023-03-17T12:25:37.547Z,101431.81
2023-03-17T12:29:53.471Z,101432.41
2023-03-17T12:34:15.693Z,101427.63
2023-03-17T12:38:22.431Z,101419.06
2023-03-17T12:42:32.314Z,101428.53
2023-03-17T12:47:11.203Z,101427.84
2023-03-17T12:51:16.906Z,101434.22
2023-03-17T12:55:24.657Z,101426.16
2023-03-17T12:59:27.130Z,101422.59
2023-03-17T13:03:32.929Z,101425.84
2023-03-17T13:07:46.590Z,101420.25
2023-03-17T13:11:48.734Z,101416.63
2023-03-17T13:15:54.814Z,101410.63
2023-03-17T13:20:04.416Z,101411.53
2023-03-17T13:24:15.639Z,101398.34
2023-03-17T13:28:27.838Z,101397.41
2023-03-17T13:32:32.224Z,101400.03
2023-03-17T13:36:34.199Z,101389.66
2023-03-17T13:40:45.521Z,101382.91
2023-03-17T13:45:10.429Z,101380.78
2023-03-17T13:49:18.550Z,101367.31
2023-03-17T13:53:31.208Z,101369.13
2023-03-17T13:57:38.991Z,101367.50
2023-03-17T14:02:01.403Z,101367.91
2023-03-17T14:06:06.681Z,101371.06
2023-03-17T14:10:18.523Z,101360.66
2023-03-17T14:14:32.852Z,101345.53
2023-03-17T14:18:39.116Z,101341.94
2023-03-17T14:22:45.639Z,101341.41
2023-03-17T14:26:50.153Z,101338.38
2023-03-17T14:31:00.543Z,101333.88
2023-03-17T14:35:02.600Z,101332.41
2023-03-17T14:39:05.176Z,101337.50
2023-03-17T14:43:08.030Z,101334.94
2023-03-17T14:47:19.947Z,101329.75
2023-03-17T14:51:40.048Z,101323.00
2023-03-17T14:55:43.622Z,101327.53
2023-03-17T14:59:57.416Z,101334.13
2023-03-17T15:04:06.220Z,101335.13
2023-03-17T15:08:40.959Z,101329.75
2023-03-17T15:12:46.252Z,101320.63
2023-03-17T15:16:52.418Z,101311.00
2023-03-17T15:20:56.438Z,101310.53
2023-03-17T15:25:01.951Z,101304.44
2023-03-17T15:29:03.815Z,101298.59
2023-03-17T15:33:21.886Z,101294.06
2023-03-17T15:37:29.763Z,101292.69
2023-03-17T15:41:32.067Z,101297.53
2023-03-17T15:45:34.192Z,101297.66
2023-03-17T15:49:36.304Z,101302.75
2023-03-17T15:53:38.431Z,101303.50
2023-03-17T15:57:40.886Z,101302.94
2023-03-17T16:01:43.740Z,101308.34
2023-03-17T16:05:45.949Z,101312.34
2023-03-17T16:09:48.323Z,101310.97
2023-03-17T16:13:50.336Z,101317.69
2023-03-17T16:17:55.613Z,101324.19
2023-03-17T16:21:57.967Z,101310.47
2023-03-17T16:26:13.819Z,101319.69
2023-03-17T16:30:32.667Z,101315.84
2023-03-17T16:34:35.244Z,101313.03
2023-03-17T16:38:37.272Z,101313.50
2023-03-17T16:42:41.559Z,101316.88
2023-03-17T16:46:45.049Z,101318.34
2023-03-17T16:50:47.399Z,101317.84
2023-03-17T16:54:49.443Z,101319.81
2023-03-17T16:58:51.612Z,101328.50
2023-03-17T17:02:53.850Z,101326.09
2023-03-17T17:06:56.755Z,101331.00
2023-03-17T17:10:58.895Z,101331.38
2023-03-17T17:15:00.922Z,101330.53
2023-03-17T17:19:04.256Z,101346.28
2023-03-17T17:23:11.454Z,101342.31
2023-03-17T17:27:13.517Z,101331.31
2023-03-17T17:31:15.684Z,101321.91
2023-03-17T17:35:18.604Z,101324.69
2023-03-17T17:39:21.098Z,101327.66
2023-03-17T17:43:24.482Z,101325.16
2023-03-17T17:47:26.829Z,101334.66
2023-03-17T17:51:28.864Z,101343.31
2023-03-17T17:55:32.657Z,101345.13
2023-03-17T17:59:34.685Z,101334.00
2023-03-17T18:03:37.004Z,101334.22
2023-03-17T18:07:39.712Z,101330.81
2023-03-17T18:11:42.683Z,101346.53
2023-03-17T18:15:44.666Z,101336.25
2023-03-17T18:19:47.177Z,101336.09
2023-03-17T18:23:50.079Z,101331.69
2023-03-17T18:27:54.034Z,101328.25
2023-03-17T18:31:56.339Z,101337.78
2023-03-17T18:35:58.712Z,101334.38
2023-03-17T18:40:13.412Z,101333.84
2023-03-17T18:44:18.957Z,101328.94
2023-03-17T18:48:21.476Z,101327.31
2023-03-17T18:52:23.755Z,101333.41
2023-03-17T18:56:29.118Z,101334.25
2023-03-17T19:00:31.540Z,101335.31
2023-03-17T19:04:33.751Z,101327.56
2023-03-17T19:08:36.142Z,101331.97
2023-03-17T19:12:38.442Z,101343.44
2023-03-17T19:16:40.581Z,101335.53
2023-03-17T19:20:42.688Z,101329.38
2023-03-17T19:24:46.025Z,101325.09
2023-03-17T19:28:48.060Z,101322.47
2023-03-17T19:32:50.125Z,101322.44
2023-03-17T19:36:52.660Z,101319.00
2023-03-17T19:40:54.688Z,101325.94
2023-03-17T19:44:56.755Z,101320.81
2023-03-17T19:48:59.026Z,101324.22
2023-03-17T19:53:01.184Z,101321.53
2023-03-17T19:57:03.925Z,101318.00
2023-03-17T20:01:07.468Z,101318.03
2023-03-17T20:05:09.782Z,101319.03
2023-03-17T20:09:11.967Z,101319.16
2023-03-17T20:13:14.036Z,101315.78
2023-03-17T20:17:17.249Z,101313.22
2023-03-17T20:21:19.303Z,101311.63
2023-03-17T20:25:21.860Z,101309.94
2023-03-17T20:29:24.314Z,101305.59
2023-03-17T20:33:26.678Z,101309.06
2023-03-17T20:37:29.207Z,101309.13
2023-03-17T20:41:31.322Z,101308.25
2023-03-17T20:45:33.695Z,101303.00
2023-03-17T20:49:36.965Z,101296.00
2023-03-17T20:53:39.016Z,101299.97
2023-03-17T20:57:42.756Z,101302.34
2023-03-17T21:01:45.170Z,101302.91
2023-03-17T21:05:47.587Z,101300.63
2023-03-17T21:09:49.798Z,101290.59
2023-03-17T21:13:52.125Z,101291.38
2023-03-17T21:17:54.893Z,101289.56
2023-03-17T21:21:56.932Z,101287.66
2023-03-17T21:25:59.058Z,101286.00
2023-03-17T21:30:01.173Z,101284.31
2023-03-17T21:34:03.293Z,101280.75
2023-03-17T21:38:05.331Z,101280.03
2023-03-17T21:42:09.653Z,101284.50
2023-03-17T21:46:11.881Z,101282.81
2023-03-17T21:50:17.082Z,101286.19
2023-03-17T21:54:19.398Z,101293.03
2023-03-17T21:58:22.049Z,101293.13
2023-03-17T22:02:24.048Z,101300.13
2023-03-17T22:06:27.567Z,101304.56
2023-03-17T22:10:29.999Z,101305.53
2023-03-17T22:14:34.259Z,101304.69
2023-03-17T22:18:36.787Z,101306.41
2023-03-17T22:22:38.988Z,101300.41
2023-03-17T22:26:41.101Z,101293.63
2023-03-17T22:30:43.746Z,101292.59
2023-03-17T22:34:45.930Z,101290.00
2023-03-17T22:38:48.596Z,101284.94
2023-03-17T22:42:50.930Z,101287.47
2023-03-17T22:46:53.220Z,101282.34
2023-03-17T22:50:55.405Z,101280.38
2023-03-17T22:54:57.490Z,101282.16
2023-03-17T22:58:59.699Z,101278.72
2023-03-17T23:03:02.682Z,101289.03
2023-03-17T23:07:05.482Z,101276.25
2023-03-17T23:11:11.630Z,101276.00
2023-03-17T23:15:13.752Z,101271.72
2023-03-17T23:19:15.775Z,101265.88
2023-03-17T23:23:17.999Z,101264.28
2023-03-17T23:27:20.072Z,101259.06
2023-03-17T23:31:22.499Z,101265.06
2023-03-17T23:35:25.226Z,101257.31
2023-03-17T23:39:27.515Z,101263.44
2023-03-17T23:43:29.516Z,101260.75
2023-03-17T23:47:31.672Z,101259.16
2023-03-17T23:51:34.632Z,101253.25
2023-03-17T23:55:36.649Z,101248.16
2023-03-17T23:59:39.381Z,101243.75
